createdAt,value
2023-03-29T00:00:35.957Z,17.70
2023-03-29T00:03:17.231Z,16.40
2023-03-29T00:05:45.407Z,15.60
2023-03-29T00:08:14.974Z,14.20
2023-03-29T00:10:43.128Z,13.80
2023-03-29T00:13:11.292Z,14.40
2023-03-29T00:15:39.462Z,14.60
2023-03-29T00:18:07.728Z,13.70
2023-03-29T00:20:35.990Z,13.40
2023-03-29T00:23:04.222Z,14.70
2023-03-29T00:25:32.303Z,14.40
2023-03-29T00:28:00.575Z,13.50
2023-03-29T00:30:28.828Z,13.50
2023-03-29T00:32:57.423Z,14.30
2023-03-29T00:35:25.791Z,14.30
2023-03-29T00:37:54.321Z,14.70
2023-03-29T00:40:22.550Z,13.50
2023-03-29T00:42:50.669Z,13.40
2023-03-29T00:45:22.698Z,12.30
2023-03-29T00:47:57.407Z,12.40
2023-03-29T00:50:31.033Z,11.40
2023-03-29T00:53:21.933Z,12.60
2023-03-29T00:55:56.955Z,11.90
2023-03-29T00:58:30.808Z,12.70
2023-03-29T01:01:11.743Z,11.80
2023-03-29T01:03:48.639Z,11.50
2023-03-29T01:06:21.076Z,12.30
2023-03-29T01:09:01.464Z,11.60
2023-03-29T01:11:35.303Z,9.90
2023-03-29T01:14:06.495Z,10.70
2023-03-29T01:19:10.500Z,10.30
2023-03-29T01:21:49.518Z,11.20
2023-03-29T01:24:33.958Z,11.30
2023-03-29T01:27:39.135Z,9.50
2023-03-29T01:30:17.506Z,11.30
2023-03-29T01:33:00.472Z,10.30
2023-03-29T01:35:28.612Z,11.70
2023-03-29T01:38:10.510Z,11.10
2023-03-29T01:40:38.641Z,10.90
2023-03-29T01:43:17.640Z,10.20
2023-03-29T01:46:19.182Z,10.10
2023-03-29T01:49:27.932Z,9.80
2023-03-29T01:52:05.752Z,9.20
2023-03-29T01:54:41.546Z,10.30
2023-03-29T01:57:10.774Z,10.90
2023-03-29T01:59:42.553Z,9.10
2023-03-29T02:02:14.964Z,9.00
2023-03-29T02:04:51.867Z,9.90
2023-03-29T02:07:25.185Z,9.10
2023-03-29T02:09:54.389Z,9.20
2023-03-29T02:12:22.828Z,9.40
2023-03-29T02:14:51.029Z,8.60
2023-03-29T02:17:25.683Z,8.50
2023-03-29T02:20:22.687Z,8.50
2023-03-29T02:23:02.501Z,8.30
2023-03-29T02:25:32.642Z,8.80
2023-03-29T02:28:01.823Z,8.90
2023-03-29T02:30:42.575Z,8.60
2023-03-29T02:33:59.553Z,9.60
2023-03-29T02:36:38.403Z,7.40
2023-03-29T02:39:09.950Z,8.30
2023-03-29T02:41:39.006Z,7.50
2023-03-29T02:44:10.765Z,7.60
2023-03-29T02:46:39.107Z,7.50
2023-03-29T02:49:07.276Z,6.70
2023-03-29T02:51:38.561Z,7.80
2023-03-29T02:54:13.836Z,7.70
2023-03-29T02:56:43.770Z,9.50
2023-03-29T02:59:12.808Z,8.80
2023-03-29T03:01:45.822Z,9.60
2023-03-29T03:04:15.552Z,9.80
2023-03-29T03:06:44.030Z,9.50
2023-03-29T03:09:12.466Z,9.40
2023-03-29T03:11:42.580Z,9.90
2023-03-29T03:14:11.038Z,8.60
2023-03-29T03:16:39.258Z,9.40
2023-03-29T03:19:07.705Z,10.20
2023-03-29T03:21:37.824Z,11.60
2023-03-29T03:24:07.757Z,10.30
2023-03-29T03:26:38.324Z,9.60
2023-03-29T03:29:06.650Z,8.40
2023-03-29T03:31:54.230Z,8.70
2023-03-29T03:34:40.953Z,8.40
2023-03-29T03:37:12.071Z,8.90
2023-03-29T03:39:40.440Z,9.30
2023-03-29T03:42:09.729Z,8.20
2023-03-29T03:44:43.311Z,9.80
2023-03-29T03:47:32.040Z,9.30
2023-03-29T03:50:09.250Z,8.70
2023-03-29T03:52:37.518Z,9.50
2023-03-29T03:55:06.318Z,8.30
2023-03-29T03:57:48.073Z,9.30
2023-03-29T04:00:21.429Z,10.60
2023-03-29T04:03:12.652Z,10.20
2023-03-29T04:05:44.708Z,9.20
2023-03-29T04:08:15.003Z,9.50
2023-03-29T04:11:19.127Z,8.70
2023-03-29T04:13:47.489Z,8.90
2023-03-29T04:16:27.518Z,10.80
2023-03-29T04:18:56.772Z,13.50
2023-03-29T04:21:25.631Z,12.10
2023-03-29T04:23:54.211Z,17.10
2023-03-29T04:26:23.107Z,15.00
2023-03-29T04:28:57.633Z,13.40
2023-03-29T04:31:42.042Z,11.90
2023-03-29T04:34:28.008Z,9.90
2023-03-29T04:36:58.860Z,11.00
2023-03-29T04:39:34.056Z,11.30
2023-03-29T04:42:05.304Z,11.90
2023-03-29T04:44:35.190Z,11.50
2023-03-29T04:47:05.159Z,10.80
2023-03-29T04:49:56.256Z,10.80
2023-03-29T04:52:33.508Z,9.50
2023-03-29T04:55:03.352Z,9.60
2023-03-29T04:57:44.747Z,9.20
2023-03-29T05:00:27.796Z,9.00
2023-03-29T05:03:14.749Z,9.80
2023-03-29T05:05:54.695Z,9.50
2023-03-29T05:08:22.870Z,10.70
2023-03-29T05:11:10.958Z,12.70
2023-03-29T05:13:40.106Z,11.00
2023-03-29T05:16:08.944Z,12.90
2023-03-29T05:18:37.159Z,18.20
2023-03-29T05:21:06.454Z,15.60
2023-03-29T05:23:35.162Z,17.70
2023-03-29T05:26:10.069Z,24.40
2023-03-29T05:28:39.597Z,21.40
2023-03-29T05:31:08.964Z,23.10
2023-03-29T05:33:40.097Z,24.90
2023-03-29T05:36:13.950Z,21.70
2023-03-29T05:38:46.896Z,23.00
2023-03-29T05:41:16.166Z,23.70
2023-03-29T05:43:46.968Z,23.90
2023-03-29T05:46:15.564Z,25.30
2023-03-29T05:48:49.116Z,26.30
2023-03-29T05:51:19.036Z,19.30
2023-03-29T05:53:47.253Z,20.70
2023-03-29T05:56:16.500Z,19.90
2023-03-29T05:58:46.805Z,19.80
2023-03-29T06:01:18.068Z,19.40
2023-03-29T06:03:56.465Z,16.60
2023-03-29T06:06:29.578Z,17.70
2023-03-29T06:09:01.411Z,17.80
2023-03-29T06:11:36.916Z,16.50
2023-03-29T06:14:11.134Z,15.80
2023-03-29T06:16:47.228Z,15.70
2023-03-29T06:19:15.630Z,14.20
2023-03-29T06:21:43.893Z,13.70
2023-03-29T06:24:14.652Z,13.20
2023-03-29T06:26:47.278Z,11.50
2023-03-29T06:29:16.104Z,9.80
2023-03-29T06:31:44.449Z,8.60
2023-03-29T06:34:24.102Z,8.50
2023-03-29T06:37:15.236Z,7.90
2023-03-29T06:39:43.923Z,6.70
2023-03-29T06:42:27.301Z,8.10
2023-03-29T06:45:36.818Z,6.60
2023-03-29T06:48:08.245Z,6.60
2023-03-29T06:50:37.038Z,5.80
2023-03-29T06:53:26.402Z,7.00
2023-03-29T06:56:05.499Z,6.60
2023-03-29T06:58:56.925Z,7.20
2023-03-29T07:01:34.834Z,7.10
2023-03-29T07:04:12.306Z,6.50
2023-03-29T07:07:06.198Z,7.10
2023-03-29T07:09:36.069Z,6.90
2023-03-29T07:12:23.217Z,5.90
2023-03-29T07:14:51.550Z,6.10
2023-03-29T07:17:19.844Z,6.50
2023-03-29T07:19:48.966Z,6.50
2023-03-29T07:22:48.348Z,6.50
2023-03-29T07:25:18.788Z,6.90
2023-03-29T07:27:47.285Z,6.50
2023-03-29T07:30:18.529Z,6.50
2023-03-29T07:32:47.434Z,7.50
2023-03-29T07:35:26.970Z,6.40
2023-03-29T07:37:56.009Z,6.70
2023-03-29T07:40:26.413Z,6.10
2023-03-29T07:42:58.933Z,6.30
2023-03-29T07:45:32.120Z,6.90
2023-03-29T07:48:11.196Z,7.10
2023-03-29T07:50:53.938Z,7.70
2023-03-29T07:53:27.278Z,7.40
2023-03-29T07:55:56.360Z,5.90
2023-03-29T07:58:44.841Z,6.10
2023-03-29T08:01:18.712Z,5.70
2023-03-29T08:04:11.694Z,5.90
2023-03-29T08:06:58.885Z,5.80
2023-03-29T08:09:35.274Z,5.40
2023-03-29T08:12:03.600Z,5.70
2023-03-29T08:14:36.780Z,5.80
2023-03-29T08:17:14.629Z,4.80
2023-03-29T08:19:51.400Z,5.60
2023-03-29T08:22:23.451Z,5.20
2023-03-29T08:25:20.654Z,4.70
2023-03-29T08:27:50.924Z,4.40
2023-03-29T08:30:28.472Z,4.70
2023-03-29T08:32:58.188Z,4.40
2023-03-29T08:35:26.654Z,5.50
2023-03-29T08:38:06.380Z,4.40
2023-03-29T08:40:35.434Z,4.60
2023-03-29T08:43:49.003Z,4.60
2023-03-29T08:46:45.241Z,3.90
2023-03-29T08:49:29.726Z,3.30
2023-03-29T08:52:03.017Z,3.50
2023-03-29T08:54:45.224Z,4.20
2023-03-29T08:57:40.591Z,2.90
2023-03-29T09:00:21.855Z,3.00
2023-03-29T09:02:53.985Z,3.40
2023-03-29T09:05:30.177Z,3.00
2023-03-29T09:08:13.706Z,3.10
2023-03-29T09:11:16.413Z,2.80
2023-03-29T09:13:54.180Z,2.30
2023-03-29T09:16:53.188Z,2.40
2023-03-29T09:19:51.059Z,2.60
2023-03-29T09:22:37.477Z,2.50
2023-03-29T09:25:05.724Z,2.30
2023-03-29T09:27:43.527Z,2.70
2023-03-29T09:30:41.946Z,2.80
2023-03-29T09:33:24.827Z,3.20
2023-03-29T09:36:17.783Z,3.30
2023-03-29T09:38:49.809Z,2.70
2023-03-29T09:41:47.015Z,3.30
2023-03-29T09:44:30.794Z,3.50
2023-03-29T09:47:12.615Z,3.10
2023-03-29T09:49:47.237Z,3.30
2023-03-29T09:52:17.415Z,3.10
2023-03-29T09:54:52.535Z,3.00
2023-03-29T09:57:50.208Z,3.80
2023-03-29T10:00:20.748Z,3.00
2023-03-29T10:02:52.975Z,3.90
2023-03-29T10:05:26.110Z,3.00
2023-03-29T10:07:59.758Z,2.70
2023-03-29T10:10:29.343Z,3.30
2023-03-29T10:13:01.098Z,3.30
2023-03-29T10:15:30.771Z,3.00
2023-03-29T10:18:06.858Z,3.00
2023-03-29T10:20:36.745Z,2.40
2023-03-29T10:23:08.332Z,2.50
2023-03-29T10:25:43.000Z,2.70
2023-03-29T10:28:16.493Z,2.80
2023-03-29T10:30:52.514Z,2.80
2023-03-29T10:33:24.736Z,2.40
2023-03-29T10:35:57.364Z,2.90
2023-03-29T10:38:29.526Z,3.30
2023-03-29T10:41:12.205Z,3.00
2023-03-29T10:43:46.314Z,2.70
2023-03-29T10:46:32.784Z,2.70
2023-03-29T10:49:06.343Z,2.60
2023-03-29T10:54:05.430Z,2.30
2023-03-29T10:56:43.191Z,2.40
2023-03-29T10:59:27.619Z,2.00
2023-03-29T11:02:14.189Z,1.80
2023-03-29T11:05:17.918Z,2.50
2023-03-29T11:08:07.186Z,3.00
2023-03-29T11:10:53.792Z,2.80
2023-03-29T11:13:53.515Z,2.80
2023-03-29T11:16:42.865Z,2.00
2023-03-29T11:19:44.374Z,2.40
2023-03-29T11:22:47.893Z,2.70
2023-03-29T11:25:38.485Z,2.60
2023-03-29T11:28:29.563Z,2.90
2023-03-29T11:31:16.925Z,2.80
2023-03-29T11:34:06.773Z,2.50
2023-03-29T11:36:50.580Z,2.80
2023-03-29T11:39:34.861Z,2.30
2023-03-29T11:42:19.590Z,3.70
2023-03-29T11:44:54.646Z,3.20
2023-03-29T11:47:37.453Z,3.10
2023-03-29T11:50:20.845Z,2.60
2023-03-29T11:52:56.735Z,3.00
2023-03-29T11:55:32.259Z,2.60
2023-03-29T11:58:06.638Z,3.30
2023-03-29T12:00:37.623Z,3.00
2023-03-29T12:03:17.718Z,3.20
2023-03-29T12:05:55.767Z,3.10
2023-03-29T12:08:44.376Z,3.20
2023-03-29T12:11:37.466Z,3.10
2023-03-29T12:14:15.420Z,3.30
2023-03-29T12:17:09.389Z,3.20
2023-03-29T12:19:46.819Z,3.80
2023-03-29T12:22:15.065Z,3.80
2023-03-29T12:24:50.618Z,3.40
2023-03-29T12:27:28.588Z,3.60
2023-03-29T12:30:15.806Z,4.40
2023-03-29T12:32:57.896Z,4.30
2023-03-29T12:36:17.459Z,3.90
2023-03-29T12:39:13.908Z,3.90
2023-03-29T12:42:17.224Z,3.90
2023-03-29T12:45:19.269Z,3.30
2023-03-29T12:47:51.035Z,3.20
2023-03-29T12:50:28.706Z,3.60
2023-03-29T12:53:16.788Z,3.30
2023-03-29T12:55:44.824Z,3.30
2023-03-29T12:58:40.714Z,3.50
2023-03-29T13:01:10.790Z,3.20
2023-03-29T13:03:55.548Z,3.80
2023-03-29T13:06:51.182Z,3.30
2023-03-29T13:09:24.098Z,3.40
2023-03-29T13:11:57.542Z,3.90
2023-03-29T13:14:30.404Z,3.90
2023-03-29T13:17:17.826Z,3.20
2023-03-29T13:20:31.497Z,3.70
2023-03-29T13:23:27.435Z,3.50
2023-03-29T13:26:34.662Z,3.50
2023-03-29T13:29:03.668Z,3.50
2023-03-29T13:31:46.815Z,5.20
2023-03-29T13:35:04.654Z,3.20
2023-03-29T13:38:00.288Z,3.50
2023-03-29T13:40:31.991Z,3.10
2023-03-29T13:43:19.323Z,3.10
2023-03-29T13:45:59.258Z,3.30
2023-03-29T13:48:29.169Z,3.90
2023-03-29T13:51:31.834Z,3.90
2023-03-29T13:54:18.323Z,3.40
2023-03-29T13:56:55.171Z,3.10
2023-03-29T13:59:33.779Z,4.30
2023-03-29T14:02:04.700Z,4.30
2023-03-29T14:04:43.860Z,3.70
2023-03-29T14:07:15.687Z,4.10
2023-03-29T14:09:48.122Z,3.90
2023-03-29T14:12:17.472Z,4.80
2023-03-29T14:14:58.251Z,3.40
2023-03-29T14:17:27.803Z,5.10
2023-03-29T14:19:59.344Z,4.00
2023-03-29T14:22:34.052Z,5.10
2023-03-29T14:25:07.744Z,3.60
2023-03-29T14:27:37.251Z,3.50
2023-03-29T14:30:37.138Z,3.70
2023-03-29T14:33:05.346Z,4.40
2023-03-29T14:35:33.725Z,4.30
2023-03-29T14:38:02.518Z,4.30
2023-03-29T14:40:31.662Z,4.90
2023-03-29T14:43:06.802Z,5.40
2023-03-29T14:45:35.500Z,4.30
2023-03-29T14:48:04.799Z,4.00
2023-03-29T14:50:33.916Z,4.70
2023-03-29T14:53:02.322Z,4.40
2023-03-29T14:55:31.093Z,5.40
2023-03-29T14:58:17.132Z,5.40
2023-03-29T15:00:50.212Z,5.80
2023-03-29T15:03:19.978Z,6.40
2023-03-29T15:05:52.086Z,5.90
2023-03-29T15:08:27.472Z,5.50
2023-03-29T15:10:55.851Z,6.00
2023-03-29T15:13:25.433Z,6.70
2023-03-29T15:16:01.596Z,6.60
2023-03-29T15:18:40.178Z,7.00
2023-03-29T15:21:10.257Z,7.60
2023-03-29T15:23:55.042Z,6.30
2023-03-29T15:26:26.929Z,4.80
2023-03-29T15:29:03.200Z,5.00
2023-03-29T15:31:39.734Z,5.10
2023-03-29T15:34:10.483Z,5.70
2023-03-29T15:36:42.354Z,5.60
2023-03-29T15:39:15.732Z,6.10
2023-03-29T15:41:46.492Z,6.30
2023-03-29T15:44:23.104Z,6.30
2023-03-29T15:46:51.290Z,6.80
2023-03-29T15:49:19.442Z,6.40
2023-03-29T15:51:47.765Z,6.00
2023-03-29T15:54:16.130Z,6.60
2023-03-29T15:57:03.571Z,8.00
2023-03-29T15:59:32.368Z,8.80
2023-03-29T16:02:01.146Z,8.10
2023-03-29T16:04:29.233Z,7.90
2023-03-29T16:06:57.933Z,7.40
2023-03-29T16:09:26.028Z,7.60
2023-03-29T16:11:54.239Z,7.30
2023-03-29T16:14:23.202Z,8.30
2023-03-29T16:16:52.570Z,9.40
2023-03-29T16:19:21.708Z,11.50
2023-03-29T16:21:50.360Z,7.50
2023-03-29T16:24:25.125Z,7.00
2023-03-29T16:26:55.862Z,7.10
2023-03-29T16:29:25.536Z,9.20
2023-03-29T16:31:54.363Z,8.20
2023-03-29T16:34:23.200Z,8.40
2023-03-29T16:36:53.100Z,8.10
2023-03-29T16:39:21.602Z,6.70
2023-03-29T16:41:50.456Z,7.40
2023-03-29T16:44:23.819Z,7.30
2023-03-29T16:46:54.440Z,7.00
2023-03-29T16:49:24.336Z,7.10
2023-03-29T16:51:52.594Z,7.00
2023-03-29T16:54:20.743Z,8.30
2023-03-29T16:56:49.074Z,6.70
2023-03-29T16:59:17.248Z,7.20
2023-03-29T17:01:46.052Z,7.30
2023-03-29T17:04:14.291Z,6.70
2023-03-29T17:06:42.819Z,5.80
2023-03-29T17:09:11.066Z,5.90
2023-03-29T17:11:39.562Z,6.60
2023-03-29T17:14:07.791Z,7.00
2023-03-29T17:16:35.930Z,7.60
2023-03-29T17:19:04.136Z,7.80
2023-03-29T17:21:32.369Z,7.70
2023-03-29T17:24:00.455Z,7.20
2023-03-29T17:26:28.655Z,8.50
2023-03-29T17:28:56.779Z,7.60
2023-03-29T17:31:24.956Z,8.70
2023-03-29T17:33:53.124Z,9.60
2023-03-29T17:36:24.247Z,9.30
2023-03-29T17:38:52.516Z,8.50
2023-03-29T17:41:21.588Z,8.90
2023-03-29T17:43:51.110Z,8.70
2023-03-29T17:46:23.043Z,7.70
2023-03-29T17:48:51.568Z,8.30
2023-03-29T17:51:20.363Z,8.10
2023-03-29T17:53:48.492Z,8.10
2023-03-29T17:56:17.144Z,8.90
2023-03-29T17:58:45.460Z,9.70
2023-03-29T18:01:14.528Z,9.90
2023-03-29T18:03:43.268Z,10.90
2023-03-29T18:06:12.064Z,10.80
2023-03-29T18:08:41.650Z,10.60
2023-03-29T18:11:12.373Z,11.40
2023-03-29T18:13:41.206Z,11.60
2023-03-29T18:16:09.938Z,12.30
2023-03-29T18:18:38.653Z,12.00
2023-03-29T18:21:10.178Z,11.50
2023-03-29T18:23:43.354Z,11.30
2023-03-29T18:26:12.335Z,11.80
2023-03-29T18:28:41.658Z,9.80
2023-03-29T18:31:09.985Z,9.40
2023-03-29T18:33:38.127Z,9.20
2023-03-29T18:36:10.724Z,9.00
2023-03-29T18:38:43.410Z,8.90
2023-03-29T18:41:13.731Z,9.00
2023-03-29T18:43:43.255Z,9.70
2023-03-29T18:46:11.541Z,9.60
2023-03-29T18:48:39.924Z,9.90
2023-03-29T18:51:10.011Z,10.10
2023-03-29T18:53:39.342Z,9.70
2023-03-29T18:56:08.198Z,9.80
2023-03-29T18:58:36.698Z,9.40
2023-03-29T19:01:06.355Z,10.40
2023-03-29T19:03:35.237Z,11.20
2023-03-29T19:06:04.925Z,10.60
2023-03-29T19:08:34.623Z,11.70
2023-03-29T19:11:04.908Z,10.20
2023-03-29T19:13:33.223Z,10.30
2023-03-29T19:16:02.037Z,9.50
2023-03-29T19:18:30.454Z,9.20
2023-03-29T19:20:58.613Z,9.50
2023-03-29T19:23:28.387Z,10.60
2023-03-29T19:25:58.800Z,10.50
2023-03-29T19:28:27.639Z,9.80
2023-03-29T19:30:56.886Z,9.20
2023-03-29T19:33:25.116Z,8.80
2023-03-29T19:35:53.319Z,8.50
2023-03-29T19:38:21.788Z,8.40
2023-03-29T19:40:51.626Z,8.50
2023-03-29T19:43:20.837Z,8.20
2023-03-29T19:45:50.800Z,9.20
2023-03-29T19:48:23.878Z,8.80
2023-03-29T19:53:21.348Z,9.00
2023-03-29T19:55:49.676Z,9.60
2023-03-29T19:58:17.801Z,8.50
2023-03-29T20:00:46.822Z,8.30
2023-03-29T20:03:15.809Z,7.90
2023-03-29T20:05:44.203Z,8.20
2023-03-29T20:08:12.391Z,9.90
2023-03-29T20:10:40.529Z,9.70
2023-03-29T20:13:08.723Z,10.80
2023-03-29T20:15:37.130Z,10.50
2023-03-29T20:18:06.094Z,10.40
2023-03-29T20:20:35.807Z,9.90
2023-03-29T20:23:05.415Z,11.00
2023-03-29T20:25:36.311Z,10.50
2023-03-29T20:28:04.885Z,9.10
2023-03-29T20:30:33.245Z,8.40
2023-03-29T20:33:01.498Z,9.20
2023-03-29T20:35:29.661Z,9.20
2023-03-29T20:37:57.751Z,9.70
2023-03-29T20:40:26.077Z,10.30
2023-03-29T20:42:54.372Z,9.90
2023-03-29T20:45:22.567Z,10.30
2023-03-29T20:47:57.696Z,11.30
2023-03-29T20:50:26.635Z,11.40
2023-03-29T20:52:55.910Z,12.40
2023-03-29T20:55:24.715Z,12.10
2023-03-29T20:57:59.340Z,10.60
2023-03-29T21:00:30.078Z,10.60
2023-03-29T21:03:03.554Z,10.60
2023-03-29T21:05:33.754Z,11.10
2023-03-29T21:08:02.875Z,11.30
2023-03-29T21:10:31.208Z,10.40
2023-03-29T21:13:02.739Z,10.80
2023-03-29T21:15:32.133Z,10.40
2023-03-29T21:18:00.411Z,10.40
2023-03-29T21:20:28.538Z,9.40
2023-03-29T21:22:57.197Z,9.90
2023-03-29T21:25:25.451Z,9.50
2023-03-29T21:27:53.595Z,8.60
2023-03-29T21:30:21.946Z,9.30
2023-03-29T21:32:50.136Z,9.50
2023-03-29T21:35:18.346Z,9.60
2023-03-29T21:37:46.476Z,9.60
2023-03-29T21:40:14.601Z,10.00
2023-03-29T21:42:42.703Z,9.90
2023-03-29T21:45:11.487Z,9.30
2023-03-29T21:47:39.908Z,9.80
2023-03-29T21:50:08.327Z,10.20
2023-03-29T21:52:37.892Z,9.60
2023-03-29T21:55:06.836Z,9.40
2023-03-29T21:57:35.236Z,9.90
2023-03-29T22:00:11.019Z,9.40
2023-03-29T22:02:40.482Z,9.50
2023-03-29T22:05:09.272Z,9.40
2023-03-29T22:07:40.377Z,9.40
2023-03-29T22:10:12.211Z,9.70
2023-03-29T22:12:41.524Z,9.90
2023-03-29T22:15:15.053Z,8.50
2023-03-29T22:20:14.609Z,8.70
2023-03-29T22:22:49.884Z,9.60
2023-03-29T22:25:19.387Z,10.00
2023-03-29T22:27:48.642Z,10.10
2023-03-29T22:30:17.946Z,10.10
2023-03-29T22:32:46.183Z,9.70
2023-03-29T22:35:14.567Z,9.20
2023-03-29T22:37:45.891Z,10.40
2023-03-29T22:40:14.180Z,9.60
2023-03-29T22:42:42.530Z,10.70
2023-03-29T22:45:11.131Z,10.60
2023-03-29T22:47:39.454Z,9.80
2023-03-29T22:50:08.361Z,9.90
2023-03-29T22:52:36.677Z,10.00
2023-03-29T22:55:05.138Z,10.00
2023-03-29T22:57:33.604Z,9.70
2023-03-29T23:00:02.318Z,10.80
2023-03-29T23:02:30.578Z,9.90
2023-03-29T23:04:58.751Z,10.40
2023-03-29T23:07:28.178Z,10.80
2023-03-29T23:09:56.621Z,10.50
2023-03-29T23:12:24.711Z,10.60
2023-03-29T23:14:53.197Z,10.90
2023-03-29T23:17:21.520Z,11.10
2023-03-29T23:19:49.718Z,10.40
2023-03-29T23:22:17.786Z,10.80
2023-03-29T23:24:47.437Z,10.40
2023-03-29T23:27:16.180Z,11.00
2023-03-29T23:29:45.753Z,11.00
2023-03-29T23:32:15.782Z,10.80
2023-03-29T23:34:44.633Z,10.90
2023-03-29T23:37:12.864Z,11.10
2023-03-29T23:39:41.708Z,11.90
2023-03-29T23:42:10.651Z,11.60
2023-03-29T23:44:38.723Z,11.90
2023-03-29T23:47:07.263Z,11.50
2023-03-29T23:49:36.342Z,12.20
2023-03-29T23:52:04.933Z,12.10
2023-03-29T23:54:33.093Z,12.40
2023-03-29T23:57:01.294Z,13.00
2023-03-29T23:59:29.998Z,13.20
